Time;durP1;ratioP1;P1;durP2;ratioP2;P2;SDS_P1;SDS_P2;PMS_P1;PMS_P2;Temp;Humidity;BMP_temperature;BMP_pressure;BME280_temperature;BME280_humidity;BME280_pressure;Samples;Min_cycle;Max_cycle;Signal;HPM_P1;HPM_P2
2023/04/22 00:01:16;;;;;;;12.63;9.85;;;13.10;99.90;;;;;;5004897;28;20033;-57
2023/04/22 00:03:43;;;;;;;11.93;10.18;;;12.80;99.90;;;;;;5005449;28;20050;-50
2023/04/22 00:06:09;;;;;;;12.48;10.48;;;12.80;99.90;;;;;;5005818;28;20370;-54
2023/04/22 00:08:35;;;;;;;14.82;11.20;;;12.70;99.90;;;;;;5005735;28;20110;-57
2023/04/22 00:11:00;;;;;;;10.68;9.43;;;12.70;99.90;;;;;;5005296;28;20576;-54
2023/04/22 00:13:27;;;;;;;15.27;10.07;;;12.60;99.90;;;;;;5006236;28;20084;-57
2023/04/22 00:15:52;;;;;;;12.52;10.43;;;12.60;99.90;;;;;;5003978;28;20080;-57
2023/04/22 00:18:18;;;;;;;14.52;10.05;;;12.60;99.90;;;;;;5005055;28;20496;-55
2023/04/22 00:20:44;;;;;;;11.95;10.27;;;12.50;99.90;;;;;;5004114;28;20042;-58
2023/04/22 00:23:11;;;;;;;11.95;9.95;;;12.50;99.90;;;;;;5004758;28;20049;-49
2023/04/22 00:25:38;;;;;;;13.65;10.43;;;12.50;99.90;;;;;;5005447;28;20474;-58
2023/04/22 00:28:04;;;;;;;12.15;9.80;;;12.50;99.90;;;;;;5004288;28;20064;-53
2023/04/22 00:30:30;;;;;;;14.77;9.70;;;12.40;99.90;;;;;;5003626;28;20054;-58
2023/04/22 00:32:55;;;;;;;12.10;9.60;;;12.40;99.90;;;;;;5005124;28;20038;-55
2023/04/22 00:35:21;;;;;;;13.32;10.27;;;12.30;99.90;;;;;;5004329;28;20103;-58
2023/04/22 00:37:47;;;;;;;10.98;9.55;;;12.20;99.90;;;;;;5003977;28;20100;-51
2023/04/22 00:40:12;;;;;;;12.25;9.82;;;12.10;99.90;;;;;;5006019;28;20715;-58
2023/04/22 00:42:38;;;;;;;11.93;10.50;;;12.10;99.90;;;;;;5004770;28;20052;-56
2023/04/22 00:45:08;;;;;;;12.85;9.77;;;12.00;99.90;;;;;;5003519;28;20081;-56
2023/04/22 00:47:35;;;;;;;13.30;10.07;;;12.00;99.90;;;;;;5005062;28;20378;-57
2023/04/22 00:50:00;;;;;;;11.38;9.73;;;12.10;99.90;;;;;;5004698;28;20467;-58
2023/04/22 00:52:26;;;;;;;12.70;10.02;;;11.90;99.90;;;;;;5003887;28;20120;-53
2023/04/22 00:54:52;;;;;;;14.60;10.20;;;11.90;99.90;;;;;;5004348;28;20104;-57
2023/04/22 00:57:18;;;;;;;13.80;10.40;;;11.90;99.90;;;;;;5002999;28;20046;-54
2023/04/22 00:59:44;;;;;;;14.25;10.18;;;11.90;99.90;;;;;;5004116;28;20096;-53
2023/04/22 01:02:11;;;;;;;11.48;9.57;;;11.90;99.90;;;;;;5003879;28;20053;-53
2023/04/22 01:04:37;;;;;;;10.57;9.48;;;11.90;99.90;;;;;;5003570;28;20034;-53
2023/04/22 01:07:03;;;;;;;12.23;10.13;;;12.00;99.90;;;;;;5002026;28;20078;-51
2023/04/22 01:09:29;;;;;;;13.68;10.07;;;11.90;99.90;;;;;;5001943;28;20088;-59
2023/04/22 01:11:56;;;;;;;11.18;10.02;;;11.90;99.90;;;;;;5002247;28;20042;-55
2023/04/22 01:14:22;;;;;;;10.55;9.45;;;11.90;99.90;;;;;;5002404;28;20108;-58
2023/04/22 01:16:50;;;;;;;12.10;9.73;;;11.80;99.90;;;;;;5001148;28;20089;-55
2023/04/22 01:19:16;;;;;;;11.43;10.27;;;11.90;99.90;;;;;;5002455;28;20037;-55
2023/04/22 01:21:43;;;;;;;12.75;10.63;;;11.80;99.90;;;;;;5001931;28;20400;-55
2023/04/22 01:24:09;;;;;;;12.98;10.52;;;11.90;99.90;;;;;;5002027;28;20049;-59
2023/04/22 01:26:35;;;;;;;11.40;10.15;;;11.80;99.90;;;;;;5002586;28;20083;-56
2023/04/22 01:29:02;;;;;;;14.57;10.30;;;11.80;99.90;;;;;;5005900;28;20046;-58
2023/04/22 01:31:29;;;;;;;12.15;10.45;;;11.80;99.90;;;;;;5004546;28;20045;-53
2023/04/22 01:33:54;;;;;;;13.45;11.38;;;11.90;99.90;;;;;;5004964;28;20107;-59
2023/04/22 01:36:20;;;;;;;13.60;10.13;;;11.80;99.90;;;;;;5006380;28;20038;-55
2023/04/22 01:38:46;;;;;;;12.75;10.10;;;11.80;99.90;;;;;;5006015;28;20516;-59
2023/04/22 01:41:12;;;;;;;12.23;10.15;;;11.70;99.90;;;;;;5005666;28;20073;-58
2023/04/22 01:43:39;;;;;;;14.35;10.07;;;11.60;99.90;;;;;;5005691;28;20053;-56
2023/04/22 01:46:05;;;;;;;11.63;9.90;;;11.70;99.90;;;;;;5005598;28;20467;-57
2023/04/22 01:48:31;;;;;;;12.43;10.30;;;11.60;99.90;;;;;;5005308;28;20077;-57
2023/04/22 01:50:56;;;;;;;17.00;10.63;;;11.60;99.90;;;;;;5005876;28;20509;-51
2023/04/22 01:53:22;;;;;;;14.00;11.05;;;11.50;99.90;;;;;;5005775;28;20088;-54
2023/04/22 01:55:47;;;;;;;14.90;10.32;;;11.40;99.90;;;;;;5005661;28;20040;-59
2023/04/22 01:58:13;;;;;;;13.63;11.20;;;11.40;99.90;;;;;;5005060;28;20112;-52
2023/04/22 02:00:39;;;;;;;13.38;11.50;;;11.40;99.90;;;;;;5004636;28;20100;-55
2023/04/22 02:03:05;;;;;;;13.10;11.23;;;11.40;99.90;;;;;;5006215;28;20112;-57
2023/04/22 02:05:31;;;;;;;13.23;11.32;;;11.30;99.90;;;;;;5005694;28;20048;-58
2023/04/22 02:07:56;;;;;;;12.65;11.35;;;11.30;99.90;;;;;;5006032;28;20050;-57
2023/04/22 02:10:22;;;;;;;15.05;12.23;;;11.30;99.90;;;;;;5005340;28;20074;-51
2023/04/22 02:12:48;;;;;;;16.67;12.00;;;11.20;99.90;;;;;;5004848;28;20399;-58
2023/04/22 02:15:14;;;;;;;15.70;12.77;;;11.20;99.90;;;;;;5004480;28;20125;-58
2023/04/22 02:17:41;;;;;;;15.63;12.38;;;11.20;99.90;;;;;;5005539;28;20120;-57
2023/04/22 02:20:09;;;;;;;13.63;11.73;;;11.10;99.90;;;;;;5005620;28;20046;-50
2023/04/22 02:22:35;;;;;;;14.55;11.85;;;11.10;99.90;;;;;;5004987;28;20077;-56
2023/04/22 02:25:03;;;;;;;14.80;11.90;;;11.00;99.90;;;;;;5003702;28;20347;-56
2023/04/22 02:27:29;;;;;;;14.10;12.25;;;11.00;99.90;;;;;;5005029;28;20050;-57
2023/04/22 02:29:54;;;;;;;13.13;11.77;;;10.90;99.90;;;;;;5004205;28;20045;-58
2023/04/22 02:32:20;;;;;;;14.27;12.77;;;10.90;99.90;;;;;;5005261;28;20048;-58
2023/04/22 02:34:47;;;;;;;14.35;12.90;;;10.80;99.90;;;;;;5004648;28;20056;-51
2023/04/22 02:37:12;;;;;;;13.38;11.98;;;10.70;99.90;;;;;;5004159;28;20042;-56
2023/04/22 02:39:38;;;;;;;14.18;12.75;;;10.70;99.90;;;;;;5004042;28;20050;-55
2023/04/22 02:42:04;;;;;;;17.60;12.95;;;10.60;99.90;;;;;;5004637;28;20100;-56
2023/04/22 02:44:29;;;;;;;14.23;12.70;;;10.50;99.90;;;;;;5004158;28;20061;-55
2023/04/22 02:46:55;;;;;;;13.63;12.23;;;10.50;99.90;;;;;;5004256;28;20053;-56
2023/04/22 02:49:21;;;;;;;15.15;12.50;;;10.40;99.90;;;;;;5005069;28;20400;-56
2023/04/22 02:51:46;;;;;;;15.88;12.63;;;10.40;99.90;;;;;;5004454;28;20437;-57
2023/04/22 02:54:12;;;;;;;16.05;12.48;;;10.30;99.90;;;;;;5004337;28;20493;-56
2023/04/22 02:56:38;;;;;;;13.88;12.05;;;10.40;99.90;;;;;;5004427;28;20518;-57
2023/04/22 02:59:03;;;;;;;14.27;12.85;;;10.30;99.90;;;;;;5004930;28;20057;-59
2023/04/22 03:01:29;;;;;;;14.02;12.52;;;10.20;99.90;;;;;;5003611;28;20457;-55
2023/04/22 03:03:55;;;;;;;15.45;13.13;;;10.10;99.90;;;;;;5004263;28;20045;-58
2023/04/22 03:06:21;;;;;;;14.50;13.00;;;10.00;99.90;;;;;;5004582;28;20397;-55
2023/04/22 03:08:47;;;;;;;14.55;13.05;;;10.00;99.90;;;;;;5003129;28;20042;-59
2023/04/22 03:11:12;;;;;;;18.42;13.80;;;9.90;99.90;;;;;;5003566;28;20045;-54
2023/04/22 03:13:38;;;;;;;17.08;13.52;;;9.80;99.90;;;;;;5004381;28;20334;-55
2023/04/22 03:16:04;;;;;;;15.50;13.90;;;9.70;99.90;;;;;;5003570;28;20117;-57
2023/04/22 03:18:30;;;;;;;16.67;14.90;;;9.80;99.90;;;;;;5003308;28;20100;-53
2023/04/22 03:20:56;;;;;;;15.48;13.98;;;9.70;99.90;;;;;;5004455;28;20038;-57
2023/04/22 03:23:21;;;;;;;15.77;13.77;;;9.70;99.90;;;;;;5003752;28;20049;-55
2023/04/22 03:25:47;;;;;;;17.52;14.80;;;9.70;99.90;;;;;;5004051;28;20120;-56
2023/04/22 03:28:13;;;;;;;17.45;14.57;;;9.60;99.90;;;;;;5003782;28;20054;-54
2023/04/22 03:30:38;;;;;;;16.48;14.70;;;9.60;99.90;;;;;;5003566;28;20038;-58
2023/04/22 03:33:04;;;;;;;17.23;14.75;;;9.50;99.90;;;;;;5004057;28;20132;-57
2023/04/22 03:35:30;;;;;;;16.88;15.07;;;9.50;99.90;;;;;;5003030;28;20509;-56
2023/04/22 03:37:55;;;;;;;17.05;15.07;;;9.40;99.90;;;;;;5002367;28;20073;-57
2023/04/22 03:40:21;;;;;;;17.00;14.63;;;9.40;99.90;;;;;;5003368;28;20077;-55
2023/04/22 03:42:47;;;;;;;16.90;14.98;;;9.40;99.90;;;;;;5004076;28;20488;-58
2023/04/22 03:45:12;;;;;;;15.98;14.27;;;9.50;99.90;;;;;;5002661;28;20042;-55
2023/04/22 03:47:38;;;;;;;16.67;14.63;;;9.50;99.90;;;;;;5003735;28;20125;-58
2023/04/22 03:50:04;;;;;;;16.25;14.18;;;9.40;99.90;;;;;;5003436;28;20045;-55
2023/04/22 03:52:30;;;;;;;17.27;15.52;;;9.50;99.90;;;;;;5002877;28;20053;-57
2023/04/22 03:54:55;;;;;;;17.10;14.90;;;9.50;99.90;;;;;;5004067;28;20038;-55
2023/04/22 03:57:21;;;;;;;18.80;14.57;;;9.50;99.90;;;;;;5002031;28;20159;-55
2023/04/22 03:59:47;;;;;;;22.08;14.10;;;9.50;99.90;;;;;;5003013;28;20091;-58
2023/04/22 04:02:12;;;;;;;16.58;13.68;;;9.50;99.90;;;;;;5002971;28;20092;-57
2023/04/22 04:04:38;;;;;;;15.57;14.02;;;9.60;99.90;;;;;;5003380;28;20042;-57
2023/04/22 04:07:05;;;;;;;20.48;14.23;;;9.50;99.90;;;;;;5003593;28;20554;-53
2023/04/22 04:09:31;;;;;;;18.63;14.65;;;9.60;99.90;;;;;;5002897;28;20074;-58
2023/04/22 04:11:57;;;;;;;16.75;13.98;;;9.60;99.90;;;;;;5003079;28;20527;-55
2023/04/22 04:14:22;;;;;;;15.48;13.88;;;9.60;99.90;;;;;;5002342;28;20097;-55
2023/04/22 04:16:48;;;;;;;17.23;14.70;;;9.60;99.90;;;;;;5002431;28;20054;-55
2023/04/22 04:19:14;;;;;;;15.20;13.30;;;9.60;99.90;;;;;;5002290;28;20120;-58
2023/04/22 04:21:40;;;;;;;18.55;13.90;;;9.60;99.90;;;;;;5002674;28;20060;-56
2023/04/22 04:24:05;;;;;;;15.80;14.13;;;9.70;99.90;;;;;;5002317;28;20423;-55
2023/04/22 04:26:32;;;;;;;17.35;14.50;;;9.70;99.90;;;;;;5000942;28;20398;-52
2023/04/22 04:29:00;;;;;;;18.58;14.45;;;9.70;99.90;;;;;;5002847;28;20092;-56
2023/04/22 04:31:27;;;;;;;18.02;14.10;;;9.70;99.90;;;;;;5002558;28;20049;-57
2023/04/22 04:33:52;;;;;;;19.67;14.48;;;9.70;99.90;;;;;;5002130;28;20092;-58
2023/04/22 04:36:18;;;;;;;15.75;13.43;;;9.70;99.90;;;;;;5001575;28;20050;-56
2023/04/22 04:38:46;;;;;;;17.40;14.43;;;9.70;99.90;;;;;;5003251;28;20053;-54
2023/04/22 04:41:13;;;;;;;15.20;13.38;;;9.70;99.90;;;;;;5002391;28;20092;-56
2023/04/22 04:43:39;;;;;;;17.15;14.00;;;9.70;99.90;;;;;;5001768;28;20491;-55
2023/04/22 04:46:05;;;;;;;18.60;14.50;;;9.80;99.90;;;;;;5002420;28;20437;-57
2023/04/22 04:48:34;;;;;;;15.77;13.95;;;9.80;99.90;;;;;;5002565;28;20046;-51
2023/04/22 04:51:00;;;;;;;15.63;14.10;;;9.90;99.90;;;;;;5002702;28;20058;-53
2023/04/22 04:53:26;;;;;;;16.20;14.50;;;10.00;99.90;;;;;;5002480;28;20051;-53
2023/04/22 04:55:51;;;;;;;16.15;14.23;;;10.00;99.90;;;;;;5002837;28;20050;-57
2023/04/22 04:58:17;;;;;;;15.65;13.95;;;10.00;99.90;;;;;;5002106;28;20507;-58
2023/04/22 05:00:43;;;;;;;19.42;14.25;;;10.00;99.90;;;;;;5002088;28;20471;-56
2023/04/22 05:03:08;;;;;;;17.42;13.88;;;10.10;99.90;;;;;;5005404;28;20058;-56
2023/04/22 05:05:34;;;;;;;17.70;14.50;;;10.10;99.90;;;;;;5008654;28;20038;-57
2023/04/22 05:08:00;;;;;;;16.80;14.77;;;10.20;99.90;;;;;;5008940;28;20050;-54
2023/04/22 05:10:26;;;;;;;16.08;14.10;;;10.10;99.90;;;;;;5009233;28;20432;-58
2023/04/22 05:12:51;;;;;;;16.90;15.15;;;10.10;99.90;;;;;;5009111;28;20046;-54
2023/04/22 05:15:17;;;;;;;19.08;13.82;;;10.10;99.90;;;;;;5007911;28;20065;-59
2023/04/22 05:17:43;;;;;;;19.70;14.75;;;10.10;99.90;;;;;;5008911;28;20038;-56
2023/04/22 05:20:09;;;;;;;17.52;14.60;;;10.10;99.90;;;;;;5007384;28;20093;-57
2023/04/22 05:22:40;;;;;;;17.55;14.48;;;10.20;99.90;;;;;;5008555;28;20053;-58
2023/04/22 05:25:06;;;;;;;16.38;13.82;;;10.20;99.90;;;;;;5009448;28;20444;-59
2023/04/22 05:27:32;;;;;;;16.83;14.82;;;10.20;99.90;;;;;;5008692;28;20042;-56
2023/04/22 05:29:57;;;;;;;16.45;14.70;;;10.30;99.90;;;;;;5007936;28;20042;-58
2023/04/22 05:32:23;;;;;;;17.85;14.35;;;10.30;99.90;;;;;;5008736;28;20187;-55
2023/04/22 05:34:48;;;;;;;17.00;14.27;;;10.30;99.90;;;;;;5008741;28;20281;-57
2023/04/22 05:37:14;;;;;;;16.05;14.27;;;10.40;99.90;;;;;;5008826;28;20038;-58
2023/04/22 05:39:40;;;;;;;18.45;14.32;;;10.40;99.90;;;;;;5008292;28;20208;-58
2023/04/22 05:42:05;;;;;;;16.08;14.35;;;10.50;99.90;;;;;;5008896;28;20050;-57
2023/04/22 05:44:31;;;;;;;16.77;14.88;;;10.60;99.90;;;;;;5007827;28;20049;-55
2023/04/22 05:46:57;;;;;;;15.73;14.13;;;10.70;99.90;;;;;;5008387;28;20088;-51
2023/04/22 05:49:22;;;;;;;16.23;14.18;;;10.70;99.90;;;;;;5008661;28;20125;-55
2023/04/22 05:51:49;;;;;;;16.73;14.30;;;11.00;99.90;;;;;;4996382;28;20143;-59
2023/04/22 05:54:15;;;;;;;19.70;14.30;;;10.90;99.90;;;;;;4989089;28;20401;-56
2023/04/22 05:56:40;;;;;;;16.63;13.98;;;11.20;99.90;;;;;;4988291;28;20057;-57
2023/04/22 05:59:06;;;;;;;17.55;12.98;;;11.20;99.90;;;;;;4988258;28;20053;-54
2023/04/22 06:01:32;;;;;;;18.98;14.15;;;11.20;99.90;;;;;;4988845;28;20038;-57
2023/04/22 06:03:57;;;;;;;19.92;14.40;;;11.10;99.90;;;;;;4988491;28;20053;-58
2023/04/22 06:06:23;;;;;;;17.27;14.18;;;11.10;99.90;;;;;;4988612;28;20429;-55
2023/04/22 06:08:49;;;;;;;17.02;14.15;;;11.10;99.90;;;;;;4989527;28;20509;-58
2023/04/22 06:11:14;;;;;;;15.68;13.18;;;11.10;99.90;;;;;;4988481;28;20325;-49
2023/04/22 06:13:40;;;;;;;16.05;13.95;;;11.00;99.90;;;;;;4987035;28;20539;-57
2023/04/22 06:16:06;;;;;;;17.48;14.55;;;11.00;99.90;;;;;;4984991;28;20636;-57
2023/04/22 06:18:31;;;;;;;19.42;14.05;;;11.00;99.90;;;;;;4985572;28;20046;-56
2023/04/22 06:20:57;;;;;;;16.02;14.05;;;11.00;99.90;;;;;;4985376;28;20042;-58
2023/04/22 06:23:22;;;;;;;17.15;14.65;;;11.00;99.90;;;;;;4985725;28;20047;-55
2023/04/22 06:25:48;;;;;;;16.48;13.95;;;11.00;99.90;;;;;;4985710;28;20620;-59
2023/04/22 06:28:14;;;;;;;17.98;14.48;;;11.00;99.90;;;;;;4984987;28;20184;-53
2023/04/22 06:30:39;;;;;;;17.00;13.65;;;11.10;99.90;;;;;;4984713;28;20038;-58
2023/04/22 06:33:05;;;;;;;15.95;14.15;;;11.20;99.90;;;;;;4985448;28;20057;-55
2023/04/22 06:35:31;;;;;;;21.00;14.50;;;11.20;99.90;;;;;;4985043;28;20045;-57
2023/04/22 06:37:56;;;;;;;18.08;14.07;;;11.30;99.90;;;;;;4984952;28;20053;-58
2023/04/22 06:40:22;;;;;;;17.50;13.90;;;11.40;99.90;;;;;;4985403;28;20541;-56
2023/04/22 06:42:48;;;;;;;16.27;14.05;;;11.40;99.90;;;;;;4985543;28;20429;-67
2023/04/22 06:45:13;;;;;;;15.77;13.10;;;11.40;99.90;;;;;;4982664;28;20123;-52
2023/04/22 06:47:39;;;;;;;14.18;12.65;;;11.50;99.90;;;;;;4985314;28;20054;-57
2023/04/22 06:50:08;;;;;;;16.60;13.48;;;11.50;99.90;;;;;;4984989;28;20050;-55
2023/04/22 06:52:35;;;;;;;16.98;12.73;;;11.60;99.90;;;;;;4984847;28;20046;-57
2023/04/22 06:55:03;;;;;;;15.02;13.32;;;11.60;99.90;;;;;;4984939;28;20046;-54
2023/04/22 06:57:30;;;;;;;18.77;13.77;;;11.60;99.90;;;;;;4983823;28;20123;-58
2023/04/22 06:59:55;;;;;;;14.80;12.70;;;11.70;99.90;;;;;;4984580;28;20061;-55
2023/04/22 07:02:21;;;;;;;15.73;13.70;;;11.70;99.90;;;;;;4985120;28;20050;-58
2023/04/22 07:04:47;;;;;;;15.75;12.98;;;11.80;99.90;;;;;;4983489;28;20042;-57
2023/04/22 07:07:13;;;;;;;15.40;13.80;;;11.80;99.90;;;;;;4985234;28;20046;-51
2023/04/22 07:09:39;;;;;;;16.73;13.00;;;11.80;99.90;;;;;;4984143;28;20486;-55
2023/04/22 07:12:05;;;;;;;16.73;13.65;;;11.90;99.90;;;;;;4984792;28;20580;-56
2023/04/22 07:14:31;;;;;;;18.52;12.52;;;12.00;99.90;;;;;;4984204;28;20086;-54
2023/04/22 07:16:57;;;;;;;17.40;13.65;;;12.00;99.90;;;;;;4984509;28;20052;-51
2023/04/22 07:19:23;;;;;;;16.48;13.88;;;12.10;99.90;;;;;;4989100;28;20578;-55
2023/04/22 07:21:49;;;;;;;15.30;12.52;;;12.10;99.90;;;;;;5003834;28;20536;-58
2023/04/22 07:24:15;;;;;;;13.82;12.07;;;12.20;99.90;;;;;;5004247;28;20061;-55
2023/04/22 07:26:42;;;;;;;15.75;12.82;;;12.30;99.90;;;;;;5002856;28;20083;-58
2023/04/22 07:29:07;;;;;;;15.85;12.18;;;12.30;99.90;;;;;;5003319;28;20096;-57
2023/04/22 07:31:35;;;;;;;13.35;11.85;;;12.40;99.90;;;;;;5003838;28;20045;-58
2023/04/22 07:34:01;;;;;;;16.50;12.85;;;12.60;99.90;;;;;;5003247;28;20104;-55
2023/04/22 07:36:27;;;;;;;13.00;11.30;;;12.70;99.90;;;;;;5004055;28;20046;-49
2023/04/22 07:38:52;;;;;;;14.65;12.02;;;12.80;99.90;;;;;;5003997;28;20049;-58
2023/04/22 07:41:18;;;;;;;14.07;11.25;;;12.80;99.90;;;;;;5003376;28;20052;-55
2023/04/22 07:43:43;;;;;;;15.82;12.18;;;13.00;99.90;;;;;;5002755;28;20130;-57
2023/04/22 07:46:09;;;;;;;13.70;11.60;;;13.10;99.90;;;;;;5003508;28;20042;-54
2023/04/22 07:48:35;;;;;;;12.88;11.48;;;13.10;99.90;;;;;;5003566;28;20526;-57
2023/04/22 07:51:01;;;;;;;12.15;10.80;;;13.20;99.90;;;;;;5003266;28;20045;-56
2023/04/22 07:53:27;;;;;;;13.98;10.45;;;13.30;99.90;;;;;;5004182;28;20053;-60
2023/04/22 07:55:54;;;;;;;13.82;10.90;;;13.30;99.90;;;;;;5003639;28;20048;-53
2023/04/22 07:58:20;;;;;;;13.40;11.15;;;13.40;99.90;;;;;;5002747;28;20129;-49
2023/04/22 08:00:45;;;;;;;13.50;10.93;;;13.50;99.90;;;;;;5001147;28;20129;-56
2023/04/22 08:03:12;;;;;;;15.65;10.57;;;13.60;99.90;;;;;;4988712;28;20053;-56
2023/04/22 08:05:38;;;;;;;13.48;10.75;;;13.70;99.90;;;;;;5000058;28;20052;-55
2023/04/22 08:08:04;;;;;;;14.98;10.32;;;13.70;99.90;;;;;;4997420;28;20038;-58
2023/04/22 08:10:30;;;;;;;12.13;10.00;;;13.80;99.90;;;;;;4983932;28;20054;-56
2023/04/22 08:12:56;;;;;;;13.32;9.88;;;13.90;99.90;;;;;;4997436;28;20728;-56
2023/04/22 08:15:22;;;;;;;17.48;9.30;;;14.00;99.90;;;;;;4982471;28;20056;-57
2023/04/22 08:17:47;;;;;;;12.48;9.77;;;14.00;99.90;;;;;;4987352;28;20517;-54
2023/04/22 08:20:15;;;;;;;12.00;10.15;;;14.10;99.90;;;;;;4991834;28;20254;-50
2023/04/22 08:22:44;;;;;;;11.50;9.15;;;14.20;99.90;;;;;;4985670;28;20371;-51
2023/04/22 08:25:10;;;;;;;16.48;10.27;;;14.40;99.90;;;;;;4998498;28;20042;-59
2023/04/22 08:27:36;;;;;;;12.85;9.60;;;14.50;99.90;;;;;;5002698;28;20273;-57
2023/04/22 08:30:03;;;;;;;14.57;9.35;;;14.80;99.90;;;;;;5002254;28;20038;-58
2023/04/22 08:32:29;;;;;;;10.80;8.52;;;15.00;99.90;;;;;;5002569;28;20046;-55
2023/04/22 08:34:55;;;;;;;11.43;8.85;;;15.20;99.90;;;;;;5002845;28;20038;-58
2023/04/22 08:37:20;;;;;;;11.02;8.40;;;15.50;99.90;;;;;;5002029;28;20393;-53
2023/04/22 08:39:46;;;;;;;10.38;8.52;;;15.70;99.90;;;;;;5002305;28;20049;-57
2023/04/22 08:42:12;;;;;;;10.30;8.45;;;16.00;99.90;;;;;;5002850;28;20451;-56
2023/04/22 08:44:38;;;;;;;10.35;8.45;;;16.20;99.90;;;;;;5002197;28;20283;-57
2023/04/22 08:47:04;;;;;;;11.00;7.90;;;16.40;99.90;;;;;;5002916;28;20038;-54
2023/04/22 08:49:30;;;;;;;9.65;7.90;;;16.70;99.90;;;;;;5001276;28;20584;-53
2023/04/22 08:51:56;;;;;;;11.43;7.82;;;16.80;99.90;;;;;;5002880;28;20104;-59
2023/04/22 08:54:24;;;;;;;9.40;7.97;;;16.80;99.90;;;;;;5002478;28;20038;-58
2023/04/22 08:56:50;;;;;;;9.15;7.90;;;16.80;99.90;;;;;;5002166;28;20065;-54
2023/04/22 08:59:17;;;;;;;8.57;7.57;;;16.90;99.90;;;;;;5001838;28;20046;-58
2023/04/22 09:01:43;;;;;;;9.40;7.43;;;17.20;99.90;;;;;;5002727;28;20113;-56
2023/04/22 09:04:09;;;;;;;9.23;6.80;;;17.50;99.90;;;;;;5002169;28;20451;-57
2023/04/22 09:06:37;;;;;;;12.50;7.65;;;17.60;99.90;;;;;;5002678;28;20124;-55
2023/04/22 09:09:03;;;;;;;9.02;7.32;;;17.70;99.90;;;;;;5002688;28;20350;-52
2023/04/22 09:11:30;;;;;;;11.15;7.57;;;17.80;99.90;;;;;;5000870;28;20050;-53
2023/04/22 09:13:56;;;;;;;11.25;8.18;;;17.90;99.90;;;;;;5001425;28;20934;-55
2023/04/22 09:16:22;;;;;;;9.38;7.82;;;17.80;99.90;;;;;;5001075;28;20074;-51
2023/04/22 09:18:49;;;;;;;9.95;8.02;;;17.80;99.90;;;;;;5001278;28;20107;-56
2023/04/22 09:21:15;;;;;;;10.70;7.18;;;17.90;99.90;;;;;;5002092;28;20216;-56
2023/04/22 09:23:53;;;;;;;9.23;7.53;;;18.10;99.90;;;;;;5000722;28;20065;-54
2023/04/22 09:26:23;;;;;;;9.15;7.50;;;18.20;99.90;;;;;;5002427;28;20705;-54
2023/04/22 09:28:49;;;;;;;9.02;7.53;;;18.30;99.90;;;;;;4999641;28;20082;-52
2023/04/22 09:31:15;;;;;;;10.27;7.43;;;18.30;99.90;;;;;;5002378;28;20096;-54
2023/04/22 09:33:41;;;;;;;11.25;7.38;;;18.30;99.70;;;;;;5002218;28;20050;-54
2023/04/22 09:36:09;;;;;;;10.38;7.63;;;18.30;99.10;;;;;;4992945;28;20462;-56
2023/04/22 09:38:35;;;;;;;10.77;7.28;;;18.40;99.30;;;;;;5001012;28;20041;-57
2023/04/22 09:41:09;;;;;;;10.98;7.72;;;18.50;99.20;;;;;;5002162;28;20052;-55
2023/04/22 09:43:36;;;;;;;9.27;6.70;;;18.70;98.40;;;;;;4980768;28;20118;-51
2023/04/22 09:46:02;;;;;;;9.88;7.30;;;18.80;98.40;;;;;;4982498;28;20270;-53
2023/04/22 09:48:28;;;;;;;10.95;6.97;;;19.00;97.80;;;;;;4983134;28;20040;-55
2023/04/22 09:50:53;;;;;;;7.38;6.32;;;19.30;96.50;;;;;;4996067;28;20049;-57
2023/04/22 09:53:20;;;;;;;7.20;5.93;;;19.30;95.30;;;;;;5005099;28;20041;-56
2023/04/22 09:55:50;;;;;;;6.65;5.95;;;19.40;94.20;;;;;;5001547;28;20042;-55
2023/04/22 09:58:17;;;;;;;8.80;6.10;;;19.40;94.30;;;;;;4984886;28;20505;-56
2023/04/22 10:00:53;;;;;;;8.38;6.07;;;19.50;93.50;;;;;;4985553;28;20100;-56
2023/04/22 10:03:19;;;;;;;6.00;5.00;;;19.70;93.30;;;;;;4997444;28;20041;-57
2023/04/22 10:05:45;;;;;;;6.13;4.90;;;19.80;93.60;;;;;;4985140;28;20057;-52
2023/04/22 10:08:12;;;;;;;9.45;5.88;;;20.00;93.00;;;;;;4988401;28;20038;-57
2023/04/22 10:10:39;;;;;;;6.53;5.35;;;20.10;92.90;;;;;;4986055;28;20055;-52
2023/04/22 10:13:06;;;;;;;6.70;5.18;;;20.10;92.40;;;;;;4986102;28;20101;-59
2023/04/22 10:15:35;;;;;;;7.13;5.18;;;20.10;93.20;;;;;;4984930;28;20070;-57
2023/04/22 10:18:07;;;;;;;8.65;5.22;;;20.30;92.50;;;;;;4985765;28;20332;-52
2023/04/22 10:20:36;;;;;;;7.45;4.55;;;20.30;92.60;;;;;;4994856;28;20685;-59
2023/04/22 10:23:04;;;;;;;7.13;4.95;;;20.40;92.40;;;;;;4985898;28;20053;-58
2023/04/22 10:25:30;;;;;;;5.63;4.65;;;20.40;92.80;;;;;;4988540;28;20413;-55
2023/04/22 10:28:07;;;;;;;5.30;4.00;;;20.40;91.90;;;;;;4985316;28;20082;-56
2023/04/22 10:30:36;;;;;;;5.05;3.90;;;20.30;91.70;;;;;;4985303;28;20050;-60
2023/04/22 10:33:20;;;;;;;5.75;3.95;;;20.20;91.70;;;;;;4985159;28;20072;-52
2023/04/22 10:36:07;;;;;;;6.00;4.77;;;20.20;91.80;;;;;;4985513;28;20096;-54
2023/04/22 10:38:37;;;;;;;7.03;4.10;;;20.10;92.20;;;;;;4984987;28;20082;-53
2023/04/22 10:41:04;;;;;;;5.93;4.63;;;20.20;92.60;;;;;;4985634;28;20053;-59
2023/04/22 10:43:42;;;;;;;6.45;4.57;;;20.40;91.90;;;;;;4984717;28;20046;-61
2023/04/22 10:46:36;;;;;;;7.85;4.47;;;20.50;91.70;;;;;;4984896;28;20414;-57
2023/04/22 10:49:11;;;;;;;7.18;4.72;;;20.50;91.90;;;;;;4985041;28;20485;-58
2023/04/22 10:51:44;;;;;;;6.10;5.07;;;20.50;92.30;;;;;;4985442;28;20282;-57
2023/04/22 10:54:36;;;;;;;6.28;4.82;;;20.60;91.90;;;;;;4985151;28;20145;-59
2023/04/22 10:57:05;;;;;;;5.88;3.85;;;20.70;92.00;;;;;;4976507;28;20088;-60
2023/04/22 10:59:33;;;;;;;5.15;4.45;;;20.80;91.90;;;;;;4983754;28;20050;-61
2023/04/22 11:02:05;;;;;;;5.68;4.53;;;20.90;91.80;;;;;;4984619;28;20130;-56
2023/04/22 11:04:31;;;;;;;5.63;4.32;;;21.10;90.70;;;;;;4985160;28;20042;-61
2023/04/22 11:07:25;;;;;;;7.22;5.25;;;21.20;91.20;;;;;;4984597;28;20042;-58
2023/04/22 11:10:06;;;;;;;5.95;4.35;;;21.20;90.80;;;;;;4985173;28;20054;-58
2023/04/22 11:12:34;;;;;;;5.70;4.30;;;21.20;91.10;;;;;;4984211;28;20086;-59
2023/04/22 11:15:14;;;;;;;7.18;4.35;;;21.40;89.70;;;;;;4984133;28;20414;-58
2023/04/22 11:17:44;;;;;;;6.25;4.30;;;21.30;89.60;;;;;;4984405;28;20050;-62
2023/04/22 11:20:11;;;;;;;6.55;4.38;;;21.20;90.00;;;;;;4984471;28;21080;-62
2023/04/22 11:22:45;;;;;;;6.07;4.95;;;21.20;90.20;;;;;;5000123;28;20147;-62
2023/04/22 11:25:11;;;;;;;7.47;4.70;;;21.20;90.30;;;;;;5003630;28;20038;-61
2023/04/22 11:27:38;;;;;;;12.10;4.78;;;21.30;89.60;;;;;;5004616;28;20048;-64
2023/04/22 11:30:10;;;;;;;5.60;4.32;;;21.40;90.10;;;;;;5002454;28;20049;-69
2023/04/22 11:32:38;;;;;;;6.10;3.97;;;21.40;90.00;;;;;;5004378;28;20041;-68
2023/04/22 11:35:06;;;;;;;6.75;4.13;;;21.50;88.80;;;;;;5003573;28;20503;-67
2023/04/22 11:37:39;;;;;;;7.05;4.10;;;21.50;89.20;;;;;;5002685;28;20046;-60
2023/04/22 11:40:05;;;;;;;5.63;3.75;;;21.50;88.40;;;;;;5003359;28;20050;-66
2023/04/22 11:42:31;;;;;;;5.78;4.35;;;21.50;88.10;;;;;;4996000;28;20054;-65
2023/04/22 11:44:56;;;;;;;6.47;4.35;;;21.60;88.80;;;;;;4992082;28;20061;-67
2023/04/22 11:47:22;;;;;;;8.20;3.78;;;21.60;88.00;;;;;;4992740;28;20045;-61
2023/04/22 11:50:00;;;;;;;11.45;4.68;;;21.80;88.70;;;;;;4988166;28;20046;-67
2023/04/22 11:52:47;;;;;;;6.72;3.70;;;21.80;88.50;;;;;;4984733;28;20486;-66
2023/04/22 11:55:34;;;;;;;4.25;3.13;;;21.80;88.00;;;;;;5003906;28;20049;-67
2023/04/22 11:58:26;;;;;;;5.85;3.80;;;21.70;86.50;;;;;;4997667;28;20434;-68
2023/04/22 12:00:53;;;;;;;6.97;4.00;;;21.60;87.80;;;;;;4983934;28;20057;-59
2023/04/22 12:03:21;;;;;;;4.78;3.40;;;21.50;88.10;;;;;;4982420;28;20053;-67
2023/04/22 12:06:07;;;;;;;9.05;3.45;;;21.70;87.50;;;;;;4983629;28;20129;-68
2023/04/22 12:08:35;;;;;;;6.03;3.97;;;21.80;88.20;;;;;;4997470;28;20504;-61
2023/04/22 12:11:06;;;;;;;5.45;4.03;;;21.90;87.90;;;;;;5002512;28;20045;-69
2023/04/22 12:13:33;;;;;;;9.57;4.57;;;21.80;88.00;;;;;;5001959;28;20132;-71
2023/04/22 12:16:01;;;;;;;5.97;4.45;;;21.90;87.00;;;;;;5003201;28;20053;-63
2023/04/22 12:18:39;;;;;;;8.27;4.75;;;22.00;87.60;;;;;;5001590;28;20053;-63
2023/04/22 12:21:11;;;;;;;5.93;4.47;;;22.10;87.40;;;;;;5003226;28;20042;-67
2023/04/22 12:23:43;;;;;;;9.23;5.35;;;22.10;87.50;;;;;;5002596;28;20037;-69
2023/04/22 12:26:13;;;;;;;7.35;5.10;;;22.10;87.40;;;;;;4998268;28;20133;-73
2023/04/22 12:28:40;;;;;;;7.95;5.15;;;22.00;88.00;;;;;;4986374;28;20448;-69
2023/04/22 12:31:06;;;;;;;7.95;5.00;;;21.90;88.50;;;;;;4998472;28;20046;-68
2023/04/22 12:33:32;;;;;;;6.20;4.90;;;21.90;88.60;;;;;;4990467;28;20039;-65
2023/04/22 12:35:58;;;;;;;7.13;4.80;;;22.00;88.20;;;;;;4992074;28;20042;-58